Time,TemperatureF,DewpointF,PressureIn,WindDirection,WindDirectionDegrees,WindSpeedMPH,WindSpeedGustMPH,Humidity,HourlyPrecipIn,Conditions,Clouds,dailyrainin,SoftwareType,DateUTC
2013-12-18 00:02:00,41.0,40.0,30.41,NW,311,0.0,0.0,98,0.00,,,0.00,,2013-12-18 06:02:00,
2013-12-18 00:22:00,41.0,41.0,30.41,NW,311,0.0,0.0,99,0.00,,,0.00,,2013-12-18 06:22:00,
2013-12-18 00:53:00,40.0,40.0,30.41,NW,311,0.0,0.0,99,0.00,,,0.00,,2013-12-18 06:53:00,
2013-12-18 01:12:00,40.0,40.0,30.41,NW,311,0.0,0.0,99,0.00,,,0.00,,2013-12-18 07:12:00,
2013-12-18 01:22:00,40.0,40.0,30.41,NW,311,0.0,0.0,99,0.00,,,0.00,,2013-12-18 07:22:00,
2013-12-18 01:42:00,39.0,39.0,30.40,NW,311,0.0,0.0,99,0.00,,,0.00,,2013-12-18 07:42:00,
2013-12-18 01:53:00,39.0,39.0,30.40,NW,311,0.0,0.0,99,0.00,,,0.00,,2013-12-18 07:53:00,
2013-12-18 02:12:00,39.0,39.0,30.40,NW,311,0.0,0.0,99,0.00,,,0.00,,2013-12-18 08:12:00,
2013-12-18 02:22:00,39.0,39.0,30.40,NW,311,0.0,0.0,99,0.00,,,0.00,,2013-12-18 08:22:00,
2013-12-18 02:52:00,39.0,39.0,30.40,NW,311,0.0,0.0,100,0.00,,,0.00,,2013-12-18 08:52:00,
2013-12-18 03:02:00,39.0,39.0,30.40,NW,311,0.0,0.0,100,0.00,,,0.00,,2013-12-18 09:02:00,
2013-12-18 03:22:00,39.0,39.0,30.40,NW,311,0.0,0.0,100,0.00,,,0.00,,2013-12-18 09:22:00,
2013-12-18 03:53:00,38.0,38.0,30.41,NW,311,0.0,0.0,100,0.00,,,0.00,,2013-12-18 09:53:00,
2013-12-18 04:23:00,38.0,38.0,30.41,NW,311,0.0,0.0,100,0.00,,,0.00,,2013-12-18 10:23:00,
2013-12-18 04:42:00,37.0,37.0,30.41,NW,311,0.0,0.0,100,0.00,,,0.00,,2013-12-18 10:42:00,
2013-12-18 04:52:00,37.0,37.0,30.41,NW,311,0.0,0.0,100,0.00,,,0.00,,2013-12-18 10:52:00,
2013-12-18 05:23:00,37.0,37.0,30.41,NW,311,0.0,0.0,100,0.00,,,0.00,,2013-12-18 11:23:00,
2013-12-18 05:42:00,38.0,38.0,30.42,NW,311,0.0,0.0,100,0.00,,,0.00,,2013-12-18 11:42:00,
2013-12-18 05:53:00,38.0,38.0,30.42,NW,311,0.0,0.0,100,0.00,,,0.00,,2013-12-18 11:53:00,
2013-12-18 06:22:00,38.0,38.0,30.42,NW,311,0.0,0.0,100,0.00,,,0.00,,2013-12-18 12:22:00,
2013-12-18 06:52:00,37.0,37.0,30.43,NW,311,0.0,0.0,100,0.00,,,0.00,,2013-12-18 12:52:00,
2013-12-18 07:12:00,37.0,37.0,30.43,NW,311,0.0,0.0,100,0.00,,,0.00,,2013-12-18 13:12:00,
2013-12-18 07:22:00,37.0,37.0,30.43,NW,311,0.0,0.0,100,0.00,,,0.00,,2013-12-18 13:22:00,
2013-12-18 07:32:00,37.0,37.0,30.43,NW,311,0.0,0.0,100,0.00,,,0.00,,2013-12-18 13:32:00,
2013-12-18 07:52:00,37.0,37.0,30.45,NW,311,0.0,0.0,100,0.00,,,0.00,,2013-12-18 13:52:00,
2013-12-18 08:11:00,39.0,39.0,30.45,NW,311,0.0,0.0,100,0.00,,,0.00,,2013-12-18 14:11:00,
2013-12-18 08:21:00,39.0,39.0,30.45,NW,311,0.0,0.0,100,0.00,,,0.00,,2013-12-18 14:21:00,
2013-12-18 08:52:00,44.0,44.0,30.45,NW,311,0.0,0.0,100,0.00,,,0.00,,2013-12-18 14:52:00,
2013-12-18 09:22:00,46.0,46.0,30.45,NW,311,0.0,0.0,100,0.00,,,0.00,,2013-12-18 15:22:00,
2013-12-18 11:52:00,67.0,51.0,30.33,ESE,104,0.0,2.0,57,0.00,,,0.00,,2013-12-18 17:52:00,
2013-12-18 12:02:00,67.0,51.0,30.33,ESE,104,0.0,2.0,57,0.00,,,0.00,,2013-12-18 18:02:00,
2013-12-18 12:22:00,67.0,49.0,30.31,SE,128,5.0,9.0,52,0.00,,,0.00,,2013-12-18 18:22:00,
2013-12-18 12:52:00,67.0,49.0,30.29,ESE,119,3.0,9.0,53,0.00,,,0.00,,2013-12-18 18:52:00,
2013-12-18 13:01:00,67.0,49.0,30.29,ESE,119,3.0,9.0,53,0.00,,,0.00,,2013-12-18 19:01:00,
2013-12-18 13:11:00,67.0,49.0,30.29,ESE,119,3.0,9.0,53,0.00,,,0.00,,2013-12-18 19:11:00,
2013-12-18 13:21:00,67.0,49.0,30.29,ESE,119,3.0,9.0,53,0.00,,,0.00,,2013-12-18 19:21:00,
2013-12-18 13:52:00,69.0,47.0,30.26,SSE,159,3.0,7.0,46,0.00,,,0.00,,2013-12-18 19:52:00,
2013-12-18 14:12:00,69.0,46.0,30.25,SSW,206,2.0,6.0,43,0.00,,,0.00,,2013-12-18 20:12:00,
2013-12-18 14:22:00,69.0,46.0,30.25,SSW,206,2.0,6.0,43,0.00,,,0.00,,2013-12-18 20:22:00,
2013-12-18 14:52:00,69.0,47.0,30.24,SSE,160,3.0,9.0,45,0.00,,,0.00,,2013-12-18 20:52:00,
2013-12-18 15:11:00,69.0,48.0,30.23,SW,226,3.0,6.0,47,0.00,,,0.00,,2013-12-18 21:11:00,
2013-12-18 15:21:00,69.0,48.0,30.23,SW,226,3.0,6.0,47,0.00,,,0.00,,2013-12-18 21:21:00,
2013-12-18 15:33:00,69.0,48.0,30.23,SW,226,3.0,6.0,47,0.00,,,0.00,,2013-12-18 21:33:00,
2013-12-18 15:53:00,68.0,48.0,30.22,SE,142,1.0,8.0,48,0.00,,,0.00,,2013-12-18 21:53:00,
2013-12-18 16:12:00,67.0,47.0,30.22,South,182,1.0,6.0,48,0.00,,,0.00,,2013-12-18 22:12:00,
2013-12-18 16:23:00,67.0,47.0,30.22,South,182,1.0,6.0,48,0.00,,,0.00,,2013-12-18 22:23:00,
2013-12-18 16:52:00,66.0,48.0,30.23,SE,124,0.0,1.0,52,0.00,,,0.00,,2013-12-18 22:52:00,
2013-12-18 17:02:00,66.0,48.0,30.23,SE,124,0.0,1.0,52,0.00,,,0.00,,2013-12-18 23:02:00,
2013-12-18 17:12:00,66.0,48.0,30.23,SE,124,0.0,1.0,52,0.00,,,0.00,,2013-12-18 23:12:00,
2013-12-18 17:22:00,66.0,48.0,30.23,SE,124,0.0,1.0,52,0.00,,,0.00,,2013-12-18 23:22:00,
2013-12-18 17:42:00,62.0,48.0,30.25,SE,124,0.0,0.0,60,0.00,,,0.00,,2013-12-18 23:42:00,
2013-12-18 17:53:00,62.0,48.0,30.25,SE,124,0.0,0.0,60,0.00,,,0.00,,2013-12-18 23:53:00,
2013-12-18 18:11:00,61.0,46.0,30.26,SSW,206,0.0,0.0,58,0.00,,,0.00,,2013-12-19 00:11:00,
2013-12-18 18:22:00,61.0,46.0,30.26,SSW,206,0.0,0.0,58,0.00,,,0.00,,2013-12-19 00:22:00,
2013-12-18 18:32:00,61.0,46.0,30.26,SSW,206,0.0,0.0,58,0.00,,,0.00,,2013-12-19 00:32:00,
2013-12-18 18:52:00,57.0,46.0,30.27,SSW,210,0.0,2.0,66,0.00,,,0.00,,2013-12-19 00:52:00,
2013-12-18 19:11:00,57.0,47.0,30.28,SSW,210,0.0,0.0,69,0.00,,,0.00,,2013-12-19 01:11:00,
2013-12-18 19:21:00,57.0,47.0,30.28,SSW,210,0.0,0.0,69,0.00,,,0.00,,2013-12-19 01:21:00,
2013-12-18 19:52:00,55.0,47.0,30.29,SSW,210,0.0,0.0,73,0.00,,,0.00,,2013-12-19 01:52:00,
2013-12-18 20:11:00,55.0,48.0,30.29,SSW,210,0.0,0.0,76,0.00,,,0.00,,2013-12-19 02:11:00,
2013-12-18 20:22:00,55.0,48.0,30.29,SSW,210,0.0,0.0,76,0.00,,,0.00,,2013-12-19 02:22:00,
2013-12-18 20:32:00,55.0,48.0,30.29,SSW,210,0.0,0.0,76,0.00,,,0.00,,2013-12-19 02:32:00,
2013-12-18 20:42:00,55.0,48.0,30.29,SSW,210,0.0,0.0,76,0.00,,,0.00,,2013-12-19 02:42:00,
2013-12-18 21:12:00,51.0,47.0,30.30,SSW,210,0.0,0.0,85,0.00,,,0.00,,2013-12-19 03:12:00,
2013-12-18 21:21:00,51.0,47.0,30.30,SSW,210,0.0,0.0,85,0.00,,,0.00,,2013-12-19 03:21:00,
2013-12-18 21:53:00,50.0,47.0,30.31,SSW,210,0.0,0.0,91,0.00,,,0.00,,2013-12-19 03:53:00,
2013-12-18 22:23:00,49.0,47.0,30.31,SSW,210,0.0,0.0,93,0.00,,,0.00,,2013-12-19 04:23:00,
2013-12-18 22:43:00,48.0,46.0,30.31,SSW,210,0.0,0.0,94,0.00,,,0.00,,2013-12-19 04:43:00,
2013-12-18 22:53:00,48.0,46.0,30.31,SSW,210,0.0,0.0,94,0.00,,,0.00,,2013-12-19 04:53:00,
2013-12-18 23:22:00,47.0,46.0,30.30,North,0,0.0,0.0,96,0.00,,,0.00,,2013-12-19 05:22:00,
2013-12-18 23:42:00,47.0,46.0,30.30,North,0,0.0,0.0,97,0.00,,,0.00,,2013-12-19 05:42:00,
2013-12-18 23:52:00,47.0,46.0,30.30,North,0,0.0,0.0,97,0.00,,,0.00,,2013-12-19 05:52:00,